Latest Coastal Weather Observations for Weipa

IDQ60701

Issued at 7:02 am EST Tuesday 9 February 2016 (issued every 10 minutes, with the page automatically refreshed every 10 minutes)

About coastal observations | Map of coastal stations | Coastal observations for QLD | Marine services | Other Formats
Station Details ID: 027045 Name: WEIPA AERO Lat: -12.68 Lon: 141.92 Height: 17.96 m
Data from the previous 72 hours. | See also: Recent months at Weipa
Date/Time
EST
Temp

°C
Wind Pressure Rain
since 9am
mm
Weather Cloud Vis
km
Sea
Height
m
Swell
Dir
 
Speed
knots
Gust
knots
hPa Trend Height
m
Period
s
Dir
09/07:00am 24.9 CALM 0 0 1008.1 - 0.0 - - 10 - - - -
09/06:30am 24.7 CALM 0 0 1007.9 - 0.0 - - 10 - - - -
09/06:00am 25.0 CALM 0 0 1007.3 - 0.0 - - 10 - - - -
09/05:30am 24.8 CALM 0 1 1007.2 - 0.0 - - 10 - - - -
09/05:00am 25.1 CALM 0 2 1007.0 - 0.0 - - 10 - - - -
09/04:30am 25.2 CALM 0 2 1007.1 - 0.0 - - 10 - - - -
09/04:00am 25.5 E 3 5 1007.0 - 0.0 - - 10 - - - -
09/03:30am 25.5 E 2 3 1006.9 - 0.0 - - 10 - - - -
09/03:00am 25.9 CALM 0 0 1006.9 - 0.0 - - 10 - - - -
09/02:30am 26.1 ESE 2 3 1007.2 - 0.0 - - 10 - - - -
09/02:00am 26.1 CALM 0 0 1007.4 - 0.0 - - 10 - - - -
09/01:30am 26.5 CALM 0 2 1007.7 - 0.0 - - 10 - - - -
09/01:00am 26.7 SSE 2 3 1008.0 - 0.0 - - 10 - - - -
09/12:30am 27.1 ESE 1 2 1008.4 - 0.0 - Partly cloudy 10 - - - -
09/12:00am 27.4 E 1 3 1008.4 - 0.0 - - 10 - - - -
 
Date/Time
EST
Temp

°C
Wind Pressure Rain
since 9am
mm
Weather Cloud Vis
km
Sea
Height
m
Swell
Dir
 
Speed
knots
Gust
knots
hPa Trend Height
m
Period
s
Dir
08/11:30pm 27.9 SW 2 3 1008.4 - 0.0 - - 10 - - - -
08/11:00pm 27.8 SW 1 2 1008.4 - 0.0 - - 10 - - - -
08/10:30pm 27.9 CALM 0 0 1008.6 - 0.0 - - 10 - - - -
08/10:00pm 28.3 SSW 1 3 1008.6 - 0.0 - - 10 - - - -
08/09:30pm 28.5 SW 1 3 1008.6 - 0.0 - Partly cloudy 10 - - - -
08/09:00pm 29.0 SW 1 3 1008.5 - 0.0 - Cloudy 10 - - - -
08/08:30pm 28.9 SW 2 4 1008.1 - 0.0 - Partly cloudy 10 - - - -
08/08:00pm 29.0 WSW 3 5 1007.9 - 0.0 - - 10 - - - -
08/07:30pm 29.3 WSW 4 8 1007.6 - 0.0 - Partly cloudy 10 - - - -
08/07:00pm 29.5 W 5 10 1007.2 - 0.0 - Partly cloudy 10 - - - -
08/06:30pm 30.2 W 6 11 1006.8 - 0.0 - - 10 - - - -
08/06:00pm 30.6 W 8 13 1006.3 - 0.0 - - 10 - - - -
08/05:30pm 30.7 W 10 16 1006.4 - 0.0 - - 10 - - - -
08/05:00pm 31.2 W 10 17 1006.0 - 0.0 - - 10 - - - -
08/04:30pm 31.5 W 9 16 1005.8 - 0.0 - - 10 - - - -
08/04:00pm 31.4 W 11 20 1005.7 - 0.0 - - 10 - - - -
08/03:30pm 31.4 W 9 16 1006.1 - 0.0 - - 10 - - - -
08/03:00pm 31.5 W 9 15 1006.2 - 0.0 - - 10 - - - -
08/02:30pm 31.8 W 9 15 1006.9 - 0.0 - - 10 - - - -
08/02:00pm 31.5 W 9 15 1007.3 - 0.0 - - 10 - - - -
08/01:30pm 32.0 W 7 13 1007.8 - 0.0 - - 10 - - - -
08/01:00pm 32.3 W 7 12 1008.3 - 0.0 - - 10 - - - -
08/12:30pm 31.9 W 7 10 1008.8 - 0.0 - - 10 - - - -
08/12:00pm 31.7 W 6 9 1009.0 - 0.0 - - 10 - - - -
08/11:30am 31.6 W 5 10 1009.5 - 0.0 - Partly cloudy 10 - - - -
08/11:00am 30.8 W 5 7 1009.9 - 0.0 - Partly cloudy 10 - - - -
08/10:30am 30.9 WSW 2 4 1009.8 - 0.0 - Partly cloudy 10 - - - -
08/10:00am 31.1 S 1 4 1009.8 - 0.0 - Partly cloudy 10 - - - -
08/09:30am 30.2 SW 3 5 1009.8 - 0.0 - Partly cloudy 10 - - - -
08/09:00am 30.1 S 1 3 1009.5 R 0.0 Haze Mostly clear 30 - - - -
08/08:30am 29.4 CALM 0 2 1009.8 - 0.0 - - 10 - - - -
08/08:00am 28.3 ENE 2 3 1009.6 - 0.0 - - 10 - - - -
08/07:30am 26.8 CALM 0 1 1009.1 - 0.0 - - 10 - - - -
08/07:00am 25.5 CALM 0 0 1008.6 - 0.0 - - 10 - - - -
08/06:30am 25.3 CALM 0 0 1008.4 - 0.0 - - 10 - - - -
08/06:00am 25.4 CALM 0 0 1007.9 - 0.0 - Mostly clear 10 - - - -
08/05:30am 25.3 NNE 2 3 1007.8 - 0.0 - - 10 - - - -
08/05:00am 25.3 CALM 0 0 1007.6 - 0.0 - - 10 - - - -
08/04:30am 25.6 CALM 0 0 1007.3 - 0.0 - - 10 - - - -
08/04:00am 25.7 CALM 0 0 1007.4 - 0.0 - - 10 - - - -
08/03:30am 25.7 CALM 0 0 1007.5 - 0.0 - - 10 - - - -
08/03:00am 25.7 CALM 0 0 1007.3 - 0.0 - Mostly clear 10 - - - -
08/02:30am 25.8 CALM 0 0 1007.7 - 0.0 - - 10 - - - -
08/02:00am 26.1 ESE 1 3 1008.1 - 0.0 - Partly cloudy 10 - - - -
08/01:30am 26.6 SSE 1 3 1008.7 - 0.0 - Partly cloudy 10 - - - -
08/01:00am 26.5 CALM 0 0 1008.9 - 0.0 - Partly cloudy 10 - - - -
08/12:30am 26.7 CALM 0 2 1009.1 - 0.0 - - 10 - - - -
08/12:00am 26.8 CALM 0 1 1009.0 - 0.0 - - 10 - - - -
 
Date/Time
EST
Temp

°C
Wind Pressure Rain
since 9am
mm
Weather Cloud Vis
km
Sea
Height
m
Swell
Dir
 
Speed
knots
Gust
knots
hPa Trend Height
m
Period
s
Dir
07/11:30pm 27.0 CALM 0 0 1009.4 - 0.0 - - 10 - - - -
07/11:00pm 28.3 W 2 5 1009.3 - 0.0 - - 10 - - - -
07/10:30pm 28.5 W 2 4 1009.2 - 0.0 - - 10 - - - -
07/10:00pm 28.8 WSW 3 4 1008.9 - 0.0 - Partly cloudy 10 - - - -
07/09:30pm 29.1 W 3 6 1008.6 - 0.0 - Partly cloudy 10 - - - -
07/09:00pm 28.7 WNW 3 5 1008.2 - 0.0 - Mostly cloudy 10 - - - -
07/08:30pm 28.8 WNW 4 7 1008.2 - 0.0 - Partly cloudy 10 - - - -
07/08:00pm 28.8 WNW 5 8 1007.6 - 0.0 - - 10 - - - -
07/07:30pm 28.9 WNW 3 5 1007.4 - 0.0 - - 10 - - - -
07/07:00pm 29.4 WNW 5 10 1007.0 - 0.0 - Partly cloudy 10 - - - -
07/06:30pm 30.1 WNW 6 10 1006.5 - 0.0 - Partly cloudy 10 - - - -
07/06:00pm 30.5 WNW 7 11 1006.0 - 0.0 - Cloudy 10 - - - -
07/05:30pm 30.9 W 8 13 1005.8 - 0.0 - Partly cloudy 10 - - - -
07/05:00pm 31.1 WNW 9 15 1005.5 - 0.0 - Partly cloudy 10 - - - -
07/04:30pm 31.3 W 9 14 1005.4 - 0.0 - Cloudy 10 - - - -
07/04:00pm 32.0 W 8 15 1005.4 - 0.0 - Partly cloudy 10 - - - -
07/03:30pm 30.7 W 9 13 1005.6 - 0.0 - Cloudy 10 - - - -
07/03:00pm 31.0 W 7 13 1005.5 - 0.0 - Cloudy 10 - - - -
07/02:30pm 31.3 W 6 12 1006.0 - 0.0 - Partly cloudy 10 - - - -
07/02:00pm 29.0 N 4 8 1006.4 - 0.0 - Partly cloudy 10 - - - -
07/01:30pm 30.2 W 6 10 1006.7 - 0.0 - Cloudy 10 - - - -
07/01:00pm 30.6 W 7 13 1007.0 - 0.0 - Cloudy 10 - - - -
07/12:30pm 30.9 W 7 13 1007.3 - 0.0 - Partly cloudy 10 - - - -
07/12:00pm 30.7 W 6 11 1007.5 - 0.0 - Mostly cloudy 10 - - - -
07/11:30am 31.2 W 6 10 1008.0 - 0.0 - Partly cloudy 10 - - - -
07/11:00am 31.8 WNW 7 10 1008.0 - 0.0 - Partly cloudy 10 - - - -
07/10:30am 30.9 WNW 7 11 1008.3 - 0.0 - Partly cloudy 10 - - - -
07/10:00am 30.3 NW 5 10 1008.4 - 0.0 - Partly cloudy 10 - - - -
07/09:30am 30.2 NW 5 10 1008.4 - 0.0 - - 10 - - - -
07/09:00am 29.6 NNW 3 6 1008.3 R 11.6 Haze Partly cloudy 30 - - - -
07/08:30am 28.4 N 4 6 1008.4 - 11.6 - - 10 - - - -
07/08:00am 27.7 N 4 6 1008.3 - 11.6 - - 10 - - - -
07/07:30am 26.5 NNE 5 7 1008.0 - 11.6 - - 10 - - - -
07/07:00am 25.7 NNE 3 4 1007.4 - 11.6 - - 10 - - - -
07/06:30am 25.6 CALM 0 2 1007.3 - 11.6 - - 10 - - - -
07/06:00am 25.7 NNE 3 4 1006.8 - 11.6 - - 10 - - - -
07/05:30am 25.6 NE 1 3 1006.6 - 11.6 - - 10 - - - -
07/05:00am 25.6 CALM 0 0 1006.2 - 11.6 - - 10 - - - -
07/04:30am 25.8 NE 1 3 1006.1 - 11.6 - - 10 - - - -
07/04:00am 25.9 CALM 0 0 1005.9 - 11.6 - Partly cloudy 10 - - - -
07/03:30am 25.9 CALM 0 2 1006.0 - 11.6 - Partly cloudy 10 - - - -
07/03:00am 25.8 NE 2 3 1005.7 - 11.6 - - 10 - - - -
07/02:30am 26.1 CALM 0 0 1005.9 - 11.6 - - 10 - - - -
07/02:00am 26.3 CALM 0 0 1006.3 - 11.6 - - 10 - - - -
07/01:30am 26.4 E 1 2 1006.5 - 11.6 - Partly cloudy 10 - - - -
07/01:00am 26.5 CALM 0 1 1006.8 - 11.6 - Partly cloudy 10 - - - -
07/12:30am 26.8 CALM 0 1 1007.1 - 11.6 - Partly cloudy 10 - - - -
07/12:00am 26.9 NE 1 2 1007.2 - 11.6 - Mostly clear 10 - - - -
 
Date/Time
EST
Temp

°C
Wind Pressure Rain
since 9am
mm
Weather Cloud Vis
km
Sea
Height
m
Swell
Dir
 
Speed
knots
Gust
knots
hPa Trend Height
m
Period
s
Dir
06/11:30pm 26.9 N 2 3 1007.6 - 11.6 - - 10 - - - -
06/11:00pm 27.5 CALM 0 0 1007.4 - 11.6 - Partly cloudy 10 - - - -
06/10:30pm 27.5 SSE 1 2 1007.6 - 11.6 - Partly cloudy 10 - - - -
06/10:00pm 27.9 NNW 2 3 1007.4 - 11.6 - Partly cloudy 10 - - - -
06/09:30pm 28.0 WNW 3 4 1007.1 - 11.6 - Partly cloudy 10 - - - -
06/09:00pm 28.5 WNW 3 5 1006.4 - 11.6 - Mostly clear 10 - - - -
06/08:30pm 28.6 W 3 7 1006.2 - 11.6 - - 10 - - - -
06/08:00pm 28.8 W 3 5 1005.7 - 11.6 - Partly cloudy 10 - - - -
06/07:30pm 28.8 WNW 5 8 1005.2 - 11.6 - - 10 - - - -
06/07:00pm 29.1 WNW 4 7 1004.9 - 11.6 - Partly cloudy 10 - - - -
06/06:30pm 29.4 WNW 6 10 1004.7 - 11.6 - Partly cloudy 10 - - - -
06/06:00pm 29.6 WNW 7 13 1004.3 - 11.6 - Mostly clear 10 - - - -
06/05:30pm 30.0 W 8 12 1004.4 - 11.6 - Partly cloudy 10 - - - -
06/05:00pm 30.6 W 8 13 1004.3 - 11.6 - Partly cloudy 10 - - - -
06/04:30pm 31.2 W 9 16 1004.1 - 11.6 - - 10 - - - -
06/04:00pm 30.9 W 9 14 1004.0 - 11.6 - - 10 - - - -
06/03:30pm 30.2 W 9 13 1004.4 - 11.4 - Partly cloudy 10 - - - -
06/03:00pm 29.8 WNW 7 12 1004.6 - 11.4 - Cloudy 10 - - - -
06/02:30pm 29.3 WNW 5 8 1004.9 - 11.4 - Partly cloudy 10 - - - -
06/02:00pm 28.5 NNW 4 6 1004.9 - 11.4 - Partly cloudy 10 - - - -
06/01:30pm 28.1 NNW 1 4 1005.2 - 11.4 - - 10 - - - -
06/01:00pm 27.1 NNW 1 2 1005.8 - 11.0 - Partly cloudy 8 - - - -
06/12:30pm 26.6 N 2 4 1006.0 - 10.4 - Partly cloudy 10 - - - -
06/12:00pm 25.6 WNW 1 3 1006.2 - 10.2 - Mostly clear 10 - - - -
06/11:45am 25.4 W 3 5 1006.7 - 10.2 - - 10 - - - -
06/11:40am 25.3 WSW 3 8 1006.8 - 10.2 - Partly cloudy 10 - - - -
06/11:30am 24.8 WSW 6 11 1006.8 - 10.2 - Partly cloudy 2 - - - -
06/11:11am 25.3 W 9 16 1007.1 - 4.0 - Partly cloudy 2 - - - -
06/11:01am 26.2 WNW 12 21 1006.9 - 1.2 - Partly cloudy 5 - - - -
06/11:00am 26.4 WNW 12 21 1006.8 - 1.0 - Partly cloudy 9 - - - -
06/10:54am 27.2 WNW 16 21 1006.5 - 0.0 - Partly cloudy 10 - - - -
06/10:30am 29.4 N 2 4 1006.4 - 0.0 - - 10 - - - -
06/10:00am 28.6 NNE 5 6 1006.6 - 0.0 - Partly cloudy 10 - - - -
06/09:30am 28.0 E 5 9 1006.6 - 0.0 - Partly cloudy 10 - - - -
06/09:16am 27.5 E 5 8 1006.6 - 0.0 - Partly cloudy 10 - - - -
06/09:00am 27.2 SSE 5 9 1006.3 R 4.2 Rain Cloudy 30 - - - -
06/08:30am 27.2 NNE 5 8 1006.2 - 4.2 - Partly cloudy 10 - - - -
06/08:00am 26.7 ENE 6 8 1005.7 - 4.2 - Partly cloudy 10 - - - -
06/07:30am 26.1 NE 4 8 1005.3 - 4.2 - Partly cloudy 10 - - - -

Other Formats:

Comma delimited format used in spreadsheet applications
http://www.bom.gov.au/fwo/IDQ60701/IDQ60701.94170.axf

JavaScript Object Notation format (JSON) in row-major order
http://www.bom.gov.au/fwo/IDQ60701/IDQ60701.94170.json